createdAt,value
2023-04-24T00:00:41.114Z,0.6
2023-04-24T00:15:41.135Z,0.2
2023-04-24T00:30:42.773Z,0.5
2023-04-24T00:45:42.409Z,0.1
2023-04-24T01:00:42.815Z,0.2
2023-04-24T01:15:44.001Z,0.1
2023-04-24T01:30:44.386Z,0.1
2023-04-24T01:45:45.420Z,0.2
2023-04-24T02:00:45.491Z,0.1
2023-04-24T02:15:46.050Z,0.3
2023-04-24T02:30:46.314Z,0.2
2023-04-24T02:45:48.594Z,0.3
2023-04-24T03:00:49.004Z,0.2
2023-04-24T03:15:48.466Z,0.4
2023-04-24T03:30:49.058Z,0.4
2023-04-24T03:45:49.830Z,0.6
2023-04-24T04:00:50.958Z,0.4
2023-04-24T04:15:51.488Z,0.5
2023-04-24T04:30:52.454Z,0.4
2023-04-24T04:38:21.365Z,0.3
2023-04-24T04:53:23.307Z,0.5
2023-04-24T05:23:25.176Z,0.5
2023-04-24T05:38:23.630Z,0.9
2023-04-24T05:53:28.784Z,0.4
2023-04-24T06:08:25.471Z,0.7
2023-04-24T06:23:25.574Z,2
2023-04-24T06:38:31.215Z,0.8
2023-04-24T06:53:27.196Z,0.5
2023-04-24T07:08:27.288Z,1
2023-04-24T07:23:32.633Z,0.6
2023-04-24T07:38:29.057Z,1
2023-04-24T07:53:33.787Z,1.4
2023-04-24T08:08:42.942Z,2.1
2023-04-24T08:23:31.411Z,2.3
2023-04-24T08:38:31.390Z,2.3
2023-04-24T08:53:32.399Z,2.5
2023-04-24T09:08:33.212Z,1.8
2023-04-24T09:23:33.458Z,1.8
2023-04-24T09:38:33.736Z,3.6
2023-04-24T10:08:34.891Z,1.5
2023-04-24T10:23:35.616Z,2.1
2023-04-24T10:38:36.378Z,2.2
2023-04-24T10:53:37.541Z,2
2023-04-24T11:08:38.412Z,2.1
2023-04-24T11:23:38.534Z,2.5
2023-04-24T11:38:39.191Z,2.7
2023-04-24T11:53:40.153Z,2.7
2023-04-24T12:08:41.517Z,3.1
2023-04-24T12:23:42.092Z,3.1
2023-04-24T12:38:42.526Z,2.9
2023-04-24T12:53:43.536Z,2.3
2023-04-24T13:08:43.793Z,2.2
2023-04-24T13:23:45.423Z,1.9
2023-04-24T13:38:44.896Z,1.9
2023-04-24T13:53:45.539Z,1.8
2023-04-24T14:08:46.332Z,1.9
2023-04-24T14:23:47.274Z,1.7
2023-04-24T14:38:48.075Z,1.6
2023-04-24T14:53:48.224Z,2.9
2023-04-24T15:08:51.070Z,1.9
2023-04-24T15:23:49.947Z,2.1
2023-04-24T15:38:50.037Z,2.1
2023-04-24T15:53:51.192Z,2.8
2023-04-24T16:08:52.175Z,2.7
2023-04-24T16:23:53.502Z,2.4
2023-04-24T16:38:53.832Z,2.4
2023-04-24T16:53:55.243Z,2.7
2023-04-24T17:08:55.161Z,1.6
2023-04-24T17:23:56.075Z,2.1
2023-04-24T17:38:56.182Z,2.4
2023-04-24T17:53:57.037Z,2.3
2023-04-24T18:08:56.846Z,2.3
2023-04-24T18:23:58.780Z,2.3
2023-04-24T18:38:58.637Z,1.6
2023-04-24T18:53:59.584Z,1.8
2023-04-24T19:09:00.025Z,2.5
2023-04-24T19:24:01.062Z,1.8
2023-04-24T19:39:01.049Z,2.4
2023-04-24T19:54:02.577Z,2.5
2023-04-24T20:09:03.082Z,2.7
2023-04-24T20:24:03.602Z,2.7
2023-04-24T20:39:04.653Z,1.8
2023-04-24T20:54:04.812Z,1.8
2023-04-24T21:09:05.903Z,2.2
2023-04-24T21:24:06.132Z,1.3
2023-04-24T21:39:06.830Z,1.4
2023-04-24T21:54:07.822Z,1.5
2023-04-24T22:00:50.974Z,1.4
2023-04-24T22:15:37.004Z,1.7
2023-04-24T22:30:40.525Z,1.8
2023-04-24T22:45:41.140Z,1.9
2023-04-24T23:00:39.332Z,1.8
2023-04-24T23:15:39.356Z,2.3
2023-04-24T23:30:39.917Z,2.8
2023-04-24T23:45:41.118Z,2.7
